Time;durP1;ratioP1;P1;durP2;ratioP2;P2;SDS_P1;SDS_P2;PMS_P1;PMS_P2;Temp;Humidity;BMP_temperature;BMP_pressure;BME280_temperature;BME280_humidity;BME280_pressure;Samples;Min_cycle;Max_cycle;Signal;HPM_P1;HPM_P2
2022/05/04 00:00:00;;;;;;;15.73;6.50;;;;;;;7.77;85.31;67642.44;6067653;23;20050;-85
2022/05/04 00:02:25;;;;;;;15.48;6.57;;;;;;;7.79;84.90;67644.69;6066195;23;20031;-85
2022/05/04 00:04:51;;;;;;;21.15;7.28;;;;;;;7.76;84.84;67636.00;6068360;23;20025;-85
2022/05/04 00:07:16;;;;;;;13.02;7.32;;;;;;;7.62;85.78;67623.38;6065543;23;20023;-84
2022/05/04 00:09:41;;;;;;;14.55;7.13;;;;;;;7.58;86.01;67618.84;6070029;23;20455;-83
2022/05/04 00:12:07;;;;;;;15.68;7.20;;;;;;;7.67;85.20;67632.25;6068380;23;20382;-85
2022/05/04 00:14:32;;;;;;;11.25;7.07;;;;;;;7.65;85.38;67624.13;6066156;23;20443;-85
2022/05/04 00:16:58;;;;;;;12.75;6.70;;;;;;;7.72;85.63;67632.06;6070296;23;20027;-85
2022/05/04 00:19:23;;;;;;;15.00;7.50;;;;;;;;;;6070243;23;20022;-85
2022/05/04 00:21:48;;;;;;;15.35;7.28;;;;;;;7.68;85.44;67632.81;6070488;23;20060;-84
2022/05/04 00:24:16;;;;;;;13.05;7.40;;;;;;;7.65;85.93;67629.41;6072150;23;20030;-85
2022/05/04 00:26:41;;;;;;;15.57;7.22;;;;;;;7.70;85.38;67629.78;6074092;23;20033;-85
2022/05/04 00:29:06;;;;;;;12.05;6.72;;;;;;;7.77;85.55;67643.00;6077368;23;20035;-84
2022/05/04 00:31:32;;;;;;;15.02;7.25;;;;;;;;;;6074624;23;20021;-85
2022/05/04 00:33:57;;;;;;;15.10;6.70;;;;;;;7.66;85.52;67625.25;6059112;23;20034;-85
2022/05/04 00:36:22;;;;;;;12.85;7.03;;;;;;;;;;6061195;23;20057;-84
2022/05/04 00:38:48;;;;;;;14.38;7.00;;;;;;;7.69;85.85;67631.88;6060824;23;20037;-84
2022/05/04 00:41:13;;;;;;;14.25;7.03;;;;;;;7.70;85.51;67632.44;6060528;23;20209;-84
2022/05/04 00:43:38;;;;;;;14.13;7.22;;;;;;;7.71;85.85;67633.56;6062477;23;20011;-84
2022/05/04 00:46:04;;;;;;;18.25;7.82;;;;;;;7.62;86.10;67620.72;6060086;23;20102;-83
2022/05/04 00:48:29;;;;;;;16.92;7.43;;;;;;;7.65;85.74;67624.13;6062994;23;20027;-83
2022/05/04 00:50:55;;;;;;;16.40;7.82;;;;;;;7.63;85.78;67621.88;6062023;23;20643;-83
2022/05/04 00:53:21;;;;;;;13.77;7.07;;;;;;;7.59;86.08;67617.31;6059619;23;21035;-84
2022/05/04 00:55:47;;;;;;;14.70;7.10;;;;;;;7.64;85.88;67623.56;6060505;23;20019;-84
2022/05/04 01:01:14;;;;;;;14.80;7.07;;;;;;;7.55;86.45;67615.47;5974640;24;20111;-83
2022/05/04 01:03:40;;;;;;;12.93;6.93;;;;;;;7.65;85.96;67624.13;6043376;23;20091;-84
2022/05/04 01:06:05;;;;;;;12.65;6.60;;;;;;;;;;6061397;23;20105;-84
2022/05/04 01:08:30;;;;;;;13.65;6.75;;;;;;;7.53;86.13;67610.53;6061916;23;20353;-84
2022/05/04 01:10:56;;;;;;;14.88;6.70;;;;;;;7.58;86.04;67616.75;6061524;23;20206;-83
2022/05/04 01:13:22;;;;;;;13.80;7.28;;;;;;;7.59;85.37;67622.63;6061591;23;20424;-83
2022/05/04 01:15:49;;;;;;;15.30;7.22;;;;;;;7.48;86.00;67605.47;6061138;23;20018;-84
2022/05/04 01:18:14;;;;;;;13.93;7.32;;;;;;;7.49;86.28;67608.66;6060295;23;20042;-85
2022/05/04 01:20:40;;;;;;;15.30;7.03;;;;;;;7.48;86.40;67608.09;6064253;23;20538;-84
2022/05/04 01:23:05;;;;;;;14.85;6.95;;;;;;;7.42;86.01;67607.19;6061026;23;20025;-83
2022/05/04 01:25:31;;;;;;;13.48;6.75;;;;;;;7.39;86.38;67595.84;6066722;23;20021;-83
2022/05/04 01:27:56;;;;;;;17.00;7.65;;;;;;;7.34;86.51;67592.81;6065102;23;20026;-83
2022/05/04 01:30:22;;;;;;;13.95;7.00;;;;;;;7.40;86.17;67601.69;6062395;23;20059;-85
2022/05/04 01:32:47;;;;;;;16.10;6.55;;;;;;;7.34;86.36;67590.19;6063850;23;20018;-84
2022/05/04 01:35:14;;;;;;;13.95;7.38;;;;;;;7.26;86.63;67583.19;6061002;23;20026;-85
2022/05/04 01:37:40;;;;;;;14.85;6.63;;;;;;;7.19;87.01;67573.19;6062944;23;20023;-84
2022/05/04 01:40:06;;;;;;;15.68;6.57;;;;;;;7.14;87.22;67568.09;6064062;23;20356;-83
2022/05/04 01:42:31;;;;;;;20.10;7.35;;;;;;;7.09;87.34;67567.19;6063611;23;20014;-84
2022/05/04 01:44:57;;;;;;;16.02;6.97;;;;;;;7.11;87.03;67567.34;6063535;23;20106;-84
2022/05/04 01:47:22;;;;;;;15.77;7.13;;;;;;;7.09;87.29;67564.53;6061642;23;20015;-84
2022/05/04 01:49:48;;;;;;;15.18;6.13;;;;;;;7.05;87.26;67562.63;6062723;23;20033;-84
2022/05/04 01:52:13;;;;;;;13.13;6.65;;;;;;;7.05;87.00;67557.94;6062867;23;20030;-84
2022/05/04 01:54:39;;;;;;;16.98;6.90;;;;;;;7.01;87.30;67553.94;6063471;23;20019;-83
2022/05/04 01:57:04;;;;;;;16.85;7.18;;;;;;;7.03;87.31;67557.75;6062086;23;20051;-82
2022/05/04 01:59:30;;;;;;;14.40;7.20;;;;;;;7.01;86.91;67556.59;6065103;23;20220;-84
2022/05/04 02:01:56;;;;;;;13.82;6.90;;;;;;;7.05;86.99;67557.34;6060724;23;20336;-84
2022/05/04 02:04:22;;;;;;;13.73;6.45;;;;;;;7.04;86.82;67558.88;6063855;23;20069;-83
2022/05/04 02:06:47;;;;;;;15.52;6.85;;;;;;;7.08;86.66;67560.72;6074254;23;20014;-84
2022/05/04 02:09:13;;;;;;;12.50;6.10;;;;;;;7.12;86.32;67567.91;6068376;23;20026;-85
2022/05/04 02:11:39;;;;;;;16.58;6.60;;;;;;;7.08;86.62;67566.03;6070983;23;20046;-84
2022/05/04 02:14:05;;;;;;;18.42;8.18;;;;;;;7.03;86.72;67555.09;6071129;23;20022;-83
2022/05/04 02:16:30;;;;;;;15.02;7.28;;;;;;;7.07;87.04;67560.19;6070030;23;20058;-83
2022/05/04 02:18:56;;;;;;;17.23;7.78;;;;;;;7.04;86.89;67558.88;6069251;23;20508;-84
2022/05/04 02:21:21;;;;;;;12.57;6.10;;;;;;;;;;6069626;23;20034;-84
2022/05/04 02:23:47;;;;;;;13.73;7.10;;;;;;;7.19;86.22;67573.78;6069869;23;20026;-84
2022/05/04 02:26:13;;;;;;;12.35;6.47;;;;;;;7.18;86.10;67572.63;6067953;23;20530;-84
2022/05/04 02:28:38;;;;;;;16.30;6.80;;;;;;;7.19;86.29;67575.84;6070043;23;20022;-83
2022/05/04 02:31:04;;;;;;;15.90;6.15;;;;;;;7.20;86.19;67574.88;6071187;23;20376;-84
2022/05/04 02:33:29;;;;;;;18.92;7.13;;;;;;;7.32;85.83;67587.34;6067294;23;20026;-84
2022/05/04 02:38:39;;;;;;;14.02;7.03;;;;;;;7.29;85.74;67586.59;6070130;23;20104;-84
2022/05/04 02:41:04;;;;;;;14.23;7.47;;;;;;;;;;6069848;23;20015;-85
2022/05/04 02:43:29;;;;;;;18.27;7.80;;;;;;;7.30;85.88;67588.28;6070138;23;20026;-84
2022/05/04 02:45:56;;;;;;;16.27;7.57;;;;;;;7.34;85.89;67595.47;6072506;23;20058;-84
2022/05/04 02:48:22;;;;;;;15.20;6.60;;;;;;;7.38;85.68;67594.69;6072050;23;20022;-86
2022/05/04 02:50:47;;;;;;;13.73;6.82;;;;;;;;;;6077534;23;20010;-84
2022/05/04 02:53:12;;;;;;;13.73;6.63;;;;;;;7.40;85.64;67591.09;6081089;23;20010;-83
2022/05/04 02:55:38;;;;;;;15.20;7.20;;;;;;;7.45;85.49;67607.34;6081916;23;20031;-84
2022/05/04 02:58:03;;;;;;;10.85;7.03;;;;;;;7.40;85.53;67596.41;6068906;23;20093;-84
2022/05/04 03:00:29;;;;;;;12.38;6.82;;;;;;;7.49;85.24;67601.28;6069368;23;20030;-83
2022/05/04 03:02:54;;;;;;;16.45;7.32;;;;;;;7.44;84.79;67604.13;6069125;23;20404;-84
2022/05/04 03:05:21;;;;;;;13.00;6.55;;;;;;;7.47;85.04;67604.31;6068164;23;20019;-83
2022/05/04 03:07:46;;;;;;;14.85;7.05;;;;;;;7.45;84.97;67607.91;6067680;23;20069;-83
2022/05/04 03:10:13;;;;;;;12.20;6.70;;;;;;;7.41;85.30;67603.38;6067813;23;20014;-84
2022/05/04 03:12:39;;;;;;;15.75;7.32;;;;;;;7.35;85.79;67591.31;6066152;23;20015;-84
2022/05/04 03:15:06;;;;;;;15.88;7.32;;;;;;;7.29;86.15;67584.50;6066304;23;20074;-84
2022/05/04 03:17:32;;;;;;;14.32;6.95;;;;;;;7.28;86.19;67583.38;6069395;23;20023;-84
2022/05/04 03:19:58;;;;;;;13.80;6.28;;;;;;;7.34;85.76;67592.81;6068410;23;20102;-84
2022/05/04 03:22:25;;;;;;;19.33;7.97;;;;;;;7.33;85.63;67583.16;6067226;23;20015;-84
2022/05/04 03:24:50;;;;;;;12.40;6.95;;;;;;;7.33;85.81;67583.72;6068075;23;20015;-84
2022/05/04 03:27:16;;;;;;;13.50;7.28;;;;;;;7.32;85.82;67590.56;6070082;23;20066;-85
2022/05/04 03:29:41;;;;;;;15.07;7.50;;;;;;;;;;6067550;23;20055;-85
2022/05/04 03:32:07;;;;;;;19.25;7.32;;;;;;;7.22;86.53;67581.88;6070207;23;20019;-85
2022/05/04 03:34:32;;;;;;;12.63;6.90;;;;;;;7.19;86.22;67575.84;6095746;23;20047;-85
2022/05/04 03:36:58;;;;;;;16.27;6.90;;;;;;;7.22;86.55;67582.47;6073671;23;20098;-85
2022/05/04 03:39:25;;;;;;;14.63;7.80;;;;;;;7.23;86.39;67580.94;6070833;23;20030;-85
2022/05/04 03:41:50;;;;;;;11.85;7.00;;;;;;;7.14;86.57;67570.19;6069164;23;20018;-85
2022/05/04 03:44:16;;;;;;;15.88;7.32;;;;;;;7.21;86.54;67575.44;6069752;23;20082;-85
2022/05/04 03:46:50;;;;;;;16.75;8.05;;;;;;;7.18;87.07;67572.06;6072924;23;20019;-84
2022/05/04 03:49:17;;;;;;;14.85;9.50;;;;;;;7.12;87.17;67565.84;6069080;23;20017;-84
2022/05/04 03:51:43;;;;;;;19.95;11.00;;;;;;;7.06;87.34;67558.50;6069831;23;20014;-83
2022/05/04 03:54:09;;;;;;;14.95;7.65;;;;;;;7.08;87.72;67560.72;6071367;23;20018;-84
2022/05/04 03:56:35;;;;;;;20.08;8.70;;;;;;;7.03;88.00;67557.75;6071850;23;20014;-84
2022/05/04 03:59:02;;;;;;;19.73;8.88;;;;;;;6.99;88.30;67557.00;6075596;23;20014;-84
2022/05/04 04:01:27;;;;;;;13.35;7.75;;;;;;;6.97;88.65;67549.44;6096764;23;20070;-85
2022/05/04 04:03:52;;;;;;;16.33;8.32;;;;;;;6.94;88.98;67546.03;6068569;23;20014;-84
2022/05/04 04:06:18;;;;;;;14.38;8.98;;;;;;;6.96;88.66;67550.97;6071229;23;20028;-83
2022/05/04 04:08:43;;;;;;;15.27;7.57;;;;;;;7.03;88.82;67555.66;6068428;23;20213;-83
2022/05/04 04:11:10;;;;;;;14.88;7.60;;;;;;;7.09;88.66;67565.09;6065232;23;20039;-84
2022/05/04 04:13:36;;;;;;;16.20;8.18;;;;;;;7.12;88.53;67565.28;6066835;23;20021;-82
2022/05/04 04:16:02;;;;;;;16.20;9.15;;;;;;;7.09;88.65;67562.44;6066438;23;20567;-84
2022/05/04 04:18:27;;;;;;;14.15;8.23;;;;;;;7.10;88.42;67563.56;6065953;23;20035;-82
2022/05/04 04:23:39;;;;;;;14.27;7.43;;;;;;;6.99;88.95;67556.41;6065497;23;20300;-84
2022/05/04 04:26:05;;;;;;;17.83;7.97;;;;;;;;;;6065648;23;20019;-83
2022/05/04 04:28:32;;;;;;;17.60;7.97;;;;;;;6.96;89.08;67547.72;6067648;23;20027;-83
2022/05/04 04:30:57;;;;;;;13.82;8.27;;;;;;;6.96;89.03;67550.97;6067674;23;20027;-84
2022/05/04 04:33:26;;;;;;;13.43;8.05;;;;;;;7.03;89.04;67555.09;6061954;23;20038;-84
2022/05/04 04:35:52;;;;;;;17.35;8.10;;;;;;;6.93;89.01;67544.91;6064064;23;20042;-83
2022/05/04 04:38:17;;;;;;;17.73;9.10;;;;;;;6.92;89.13;67545.84;6067456;23;20023;-83
2022/05/04 04:40:43;;;;;;;15.98;9.00;;;;;;;;;;6064915;23;20083;-81
2022/05/04 04:43:08;;;;;;;15.63;8.27;;;;;;;6.94;89.43;67545.47;6064524;23;20025;-83
2022/05/04 04:45:34;;;;;;;16.80;8.13;;;;;;;6.84;89.66;67542.66;6066095;23;20243;-83
2022/05/04 04:47:59;;;;;;;14.60;8.50;;;;;;;6.88;89.70;67538.69;6064160;23;20029;-83
2022/05/04 04:50:25;;;;;;;19.00;8.90;;;;;;;6.83;90.00;67538.88;6063463;23;20568;-82
2022/05/04 04:52:50;;;;;;;18.10;8.10;;;;;;;6.83;89.85;67536.25;6064838;23;20010;-81
2022/05/04 04:55:15;;;;;;;15.82;8.60;;;;;;;6.83;90.11;67536.25;6068635;23;20019;-82
2022/05/04 04:57:41;;;;;;;18.20;8.38;;;;;;;6.80;90.29;67529.63;6064110;23;20038;-83
2022/05/04 05:00:07;;;;;;;17.08;9.82;;;;;;;6.83;90.41;67533.59;6061470;23;20015;-83
2022/05/04 05:02:35;;;;;;;16.83;8.68;;;;;;;6.88;90.35;67539.25;6058545;23;20042;-84
2022/05/04 05:05:01;;;;;;;17.95;8.85;;;;;;;6.98;90.09;67553.19;6061347;23;20015;-83
2022/05/04 05:07:26;;;;;;;14.60;8.13;;;;;;;7.06;89.54;67559.06;6058733;23;20078;-82
2022/05/04 05:09:52;;;;;;;16.70;7.78;;;;;;;7.09;89.15;67564.53;6061869;23;20046;-83
2022/05/04 05:12:17;;;;;;;13.38;7.30;;;;;;;7.12;88.64;67567.91;6057228;23;20018;-82
2022/05/04 05:17:28;;;;;;;16.35;8.75;;;;;;;7.04;89.04;67559.44;6059547;23;20054;-82
2022/05/04 05:19:53;;;;;;;20.17;8.57;;;;;;;7.03;89.40;67555.09;6060271;23;20373;-83
2022/05/04 05:22:18;;;;;;;17.67;8.07;;;;;;;7.10;88.81;67568.28;6058089;23;20019;-82
2022/05/04 05:24:44;;;;;;;16.13;9.55;;;;;;;7.09;88.57;67567.19;6059298;23;20107;-82
2022/05/04 05:27:09;;;;;;;16.42;9.43;;;;;;;7.10;88.67;67568.84;6061668;23;20426;-82
2022/05/04 05:29:35;;;;;;;15.60;8.18;;;;;;;7.22;88.27;67581.88;6059008;23;20018;-81
2022/05/04 05:32:00;;;;;;;17.02;8.38;;;;;;;7.26;87.68;67586.41;6057896;23;20025;-83
2022/05/04 05:34:28;;;;;;;15.80;7.22;;;;;;;7.31;87.45;67586.78;6059008;23;20636;-81
2022/05/04 05:36:53;;;;;;;17.98;8.55;;;;;;;;;;6059016;23;20099;-81
2022/05/04 05:39:19;;;;;;;13.70;7.93;;;;;;;7.33;86.79;67594.31;6058526;23;20102;-81
2022/05/04 05:41:44;;;;;;;18.08;7.35;;;;;;;7.36;87.02;67592.41;6057185;23;20022;-82
2022/05/04 05:44:09;;;;;;;16.02;7.18;;;;;;;7.40;86.85;67596.41;6058115;23;20030;-81
2022/05/04 05:46:35;;;;;;;14.57;8.00;;;;;;;7.46;85.97;67606.41;6059149;23;20405;-81
2022/05/04 05:49:00;;;;;;;13.38;6.80;;;;;;;7.65;86.18;67626.75;6057147;23;20095;-81
2022/05/04 05:51:25;;;;;;;14.60;6.93;;;;;;;7.63;84.87;67621.88;6058135;23;20031;-82
2022/05/04 05:53:51;;;;;;;15.68;6.75;;;;;;;7.71;84.27;67635.63;6057134;23;20027;-82
2022/05/04 05:56:16;;;;;;;13.90;6.78;;;;;;;7.72;83.65;67634.69;6057595;23;20054;-81
2022/05/04 05:58:42;;;;;;;14.43;7.28;;;;;;;7.72;83.66;67631.50;6058282;23;20023;-81
2022/05/04 06:01:07;;;;;;;17.38;7.05;;;;;;;;;;6058748;23;20406;-82
2022/05/04 06:03:32;;;;;;;13.95;7.43;;;;;;;7.78;84.44;67643.56;6060814;23;20432;-82
2022/05/04 06:05:58;;;;;;;18.60;8.00;;;;;;;7.79;84.11;67642.63;6061607;23;20348;-83
2022/05/04 06:08:23;;;;;;;15.68;7.20;;;;;;;7.99;83.06;67661.47;6061063;23;20116;-82
2022/05/04 06:10:48;;;;;;;13.73;6.70;;;;;;;7.90;82.43;67655.06;6061592;23;20089;-83
2022/05/04 06:13:13;;;;;;;16.60;6.80;;;;;;;;;;6061158;23;20110;-82
2022/05/04 06:15:39;;;;;;;10.97;6.63;;;;;;;8.09;82.36;67672.81;6060848;23;20034;-81
2022/05/04 06:18:04;;;;;;;12.15;6.97;;;;;;;8.10;82.24;67673.94;6061387;23;20364;-82
2022/05/04 06:20:29;;;;;;;15.27;7.40;;;;;;;;;;6068322;23;20041;-80
2022/05/04 06:22:55;;;;;;;15.23;6.68;;;;;;;;;;6073823;23;20075;-82
2022/05/04 06:25:20;;;;;;;10.55;5.80;;;;;;;8.23;80.13;67691.31;6068621;23;20054;-83
2022/05/04 06:27:46;;;;;;;13.90;5.90;;;;;;;8.27;80.11;67695.28;6062580;23;20019;-83
2022/05/04 06:35:39;;;;;;;10.85;5.03;;;;;;;;;;6062038;23;20127;-83
2022/05/04 06:38:04;;;;;;;15.23;6.75;;;;;;;8.57;79.05;67726.06;6062465;23;20046;-82
2022/05/04 06:40:30;;;;;;;14.77;5.57;;;;;;;8.66;78.30;67736.28;6058790;23;20022;-82
2022/05/04 06:42:55;;;;;;;14.63;5.97;;;;;;;8.64;78.15;67736.09;6059543;23;20100;-83
2022/05/04 06:45:21;;;;;;;15.32;6.15;;;;;;;;;;6062108;23;20369;-83
2022/05/04 06:47:46;;;;;;;15.63;5.55;;;;;;;8.72;77.79;67745.16;6061776;23;20015;-84
2022/05/04 06:50:11;;;;;;;17.58;5.80;;;;;;;8.88;78.30;67760.06;6061508;23;20201;-82
2022/05/04 06:52:39;;;;;;;12.20;5.30;;;;;;;;;;6059136;23;20019;-83
2022/05/04 06:55:06;;;;;;;14.02;6.00;;;;;;;8.86;77.49;67763.09;6062813;23;20029;-82
2022/05/04 06:57:31;;;;;;;12.55;5.82;;;;;;;;;;6063758;23;20023;-82
2022/05/04 06:59:59;;;;;;;14.05;6.38;;;;;;;8.94;76.53;67761.53;6064904;23;20098;-82
2022/05/04 07:02:25;;;;;;;11.60;6.55;;;;;;;8.91;77.03;67768.75;6063010;23;20027;-83
2022/05/04 07:04:51;;;;;;;9.73;5.93;;;;;;;8.99;76.76;67775.19;6063808;23;20018;-82
2022/05/04 07:07:16;;;;;;;11.65;6.30;;;;;;;9.06;76.49;67780.44;6064006;23;20692;-83
2022/05/04 07:09:41;;;;;;;13.52;6.25;;;;;;;9.12;75.75;67787.28;6065221;23;20019;-82
2022/05/04 07:12:07;;;;;;;14.40;5.90;;;;;;;;;;6063255;23;20014;-82
2022/05/04 07:14:32;;;;;;;13.05;6.18;;;;;;;;;;6064539;23;20018;-82
2022/05/04 07:16:58;;;;;;;15.93;6.18;;;;;;;9.44;75.87;67825.63;6063850;23;20026;-82
2022/05/04 07:19:23;;;;;;;16.60;6.07;;;;;;;9.39;74.52;67816.75;6061612;23;20127;-82
2022/05/04 07:21:49;;;;;;;13.02;5.55;;;;;;;9.43;75.53;67824.47;6063534;23;20026;-82
2022/05/04 07:24:14;;;;;;;16.00;6.30;;;;;;;;;;6064749;23;20101;-82
2022/05/04 07:26:42;;;;;;;9.88;5.82;;;;;;;9.61;75.39;67841.69;6062291;23;20059;-83
2022/05/04 07:29:08;;;;;;;14.27;5.50;;;;;;;9.60;73.54;67840.53;6065702;23;20019;-81
2022/05/04 07:31:34;;;;;;;13.90;5.38;;;;;;;;;;6065118;23;20549;-82
2022/05/04 07:33:59;;;;;;;13.30;5.60;;;;;;;9.53;73.72;67832.06;6064595;23;20022;-82
2022/05/04 07:36:24;;;;;;;11.40;4.85;;;;;;;9.82;75.49;67864.94;6064116;23;20011;-82
2022/05/04 07:38:50;;;;;;;14.30;5.28;;;;;;;10.07;73.15;67900.69;6063940;23;20456;-83
2022/05/04 07:43:59;;;;;;;15.10;5.43;;;;;;;10.23;72.42;67910.28;6064679;23;20049;-82
2022/05/04 07:46:26;;;;;;;13.20;4.75;;;;;;;;;;6062965;23;20885;-83
2022/05/04 07:48:51;;;;;;;10.00;4.82;;;;;;;10.53;73.63;67935.22;6065958;23;20093;-82
2022/05/04 07:51:16;;;;;;;10.02;4.68;;;;;;;;;;6064591;23;20054;-83
2022/05/04 07:53:42;;;;;;;10.27;5.13;;;;;;;;;;6064679;23;20015;-83
2022/05/04 07:56:07;;;;;;;14.23;5.43;;;;;;;10.23;70.58;67912.97;6067247;23;20255;-84
2022/05/04 07:58:32;;;;;;;13.18;4.60;;;;;;;;;;6066941;23;20251;-83
2022/05/04 08:06:25;;;;;;;14.95;7.65;;;;;;;10.57;69.43;67948.31;6061917;23;20021;-82
2022/05/04 08:08:51;;;;;;;12.15;5.07;;;;;;;10.78;69.43;67971.59;6064490;23;20098;-81
2022/05/04 08:11:16;;;;;;;12.68;4.50;;;;;;;;;;6060946;23;20018;-83
2022/05/04 08:13:41;;;;;;;12.33;5.23;;;;;;;10.70;69.88;67957.19;6064655;23;20018;-83
2022/05/04 08:16:10;;;;;;;10.93;5.10;;;;;;;10.65;69.27;67958.94;6063532;23;20251;-81
2022/05/04 08:18:36;;;;;;;;;;;;;;;;;;6063892;23;20033;-81
2022/05/04 08:21:01;;;;;;;12.77;5.13;;;;;;;10.61;68.58;67955.53;6063939;23;19913;-80
2022/05/04 08:23:27;;;;;;;11.13;5.05;;;;;;;10.58;69.28;67948.91;6059953;23;20693;-80
2022/05/04 08:25:52;;;;;;;14.85;5.82;;;;;;;10.88;70.35;67981.81;6064909;23;20302;-79
2022/05/04 08:28:19;;;;;;;12.07;5.35;;;;;;;;;;6064902;23;20531;-81
2022/05/04 08:30:45;;;;;;;16.05;5.20;;;;;;;11.07;69.09;68009.25;6061695;23;20397;-80
2022/05/04 08:33:10;;;;;;;11.90;5.78;;;;;;;11.06;68.27;67997.47;6064072;23;20018;-80
2022/05/04 08:35:35;;;;;;;11.23;5.43;;;;;;;11.14;68.77;68010.78;6063348;23;20026;-79
2022/05/04 08:38:01;;;;;;;12.70;5.72;;;;;;;11.23;67.86;68020.97;6065493;23;20022;-79
2022/05/04 08:40:26;;;;;;;12.68;5.53;;;;;;;11.19;68.80;68011.09;6063749;23;20023;-81
2022/05/04 08:42:53;;;;;;;10.95;6.05;;;;;;;11.25;67.93;68023.25;6064680;23;20035;-79
2022/05/04 08:45:18;;;;;;;11.70;5.57;;;;;;;11.23;67.19;68024.22;6064645;23;20023;-81
2022/05/04 08:47:45;;;;;;;11.40;5.40;;;;;;;11.20;67.25;68017.56;6065257;23;20098;-79
2022/05/04 08:50:21;;;;;;;13.63;5.50;;;;;;;;;;6063892;23;20023;-82
2022/05/04 08:52:56;;;;;;;11.23;5.80;;;;;;;11.33;68.27;68031.75;6064662;23;20018;-80
2022/05/04 08:55:22;;;;;;;13.95;5.25;;;;;;;11.26;67.94;68027.63;6063841;23;20101;-80
2022/05/04 08:57:50;;;;;;;12.15;4.93;;;;;;;11.45;69.68;68045.38;6063816;23;20034;-80
2022/05/04 09:00:16;;;;;;;13.60;6.20;;;;;;;;;;6064672;23;20042;-79
2022/05/04 09:02:42;;;;;;;14.57;5.75;;;;;;;11.54;67.73;68055.63;6064000;23;20480;-80
2022/05/04 09:05:16;;;;;;;14.07;5.55;;;;;;;11.71;67.80;68069.03;6063706;23;20015;-80
2022/05/04 09:07:42;;;;;;;12.48;5.15;;;;;;;11.83;67.25;68087.44;6037454;23;20512;-80
2022/05/04 09:10:19;;;;;;;12.90;5.20;;;;;;;11.64;66.62;68069.06;6065773;23;20070;-80
2022/05/04 09:12:45;;;;;;;12.30;6.07;;;;;;;;;;6041647;23;20066;-79
2022/05/04 09:15:20;;;;;;;13.93;5.50;;;;;;;11.86;66.27;68090.84;6064498;23;20019;-80
2022/05/04 09:17:46;;;;;;;12.38;6.10;;;;;;;11.98;67.16;68103.91;6064711;23;20122;-79
2022/05/04 09:22:55;;;;;;;10.60;5.90;;;;;;;;;;6042596;23;20030;-81
2022/05/04 09:25:21;;;;;;;12.43;5.70;;;;;;;;;;6064340;23;20023;-79
2022/05/04 09:27:47;;;;;;;12.50;6.43;;;;;;;12.26;64.74;68135.72;6064601;23;20019;-81
2022/05/04 09:30:13;;;;;;;12.38;5.00;;;;;;;12.29;65.80;68141.81;6062363;23;20018;-79
2022/05/04 09:32:40;;;;;;;14.15;5.53;;;;;;;12.33;65.66;68143.69;6064372;23;20408;-79
2022/05/04 09:35:16;;;;;;;14.00;5.57;;;;;;;12.51;66.86;68163.56;6064975;23;20349;-81
2022/05/04 09:46:01;;;;;;;10.93;6.40;;;;;;;;;;6066134;23;20069;-81
2022/05/04 09:48:32;;;;;;;10.67;6.13;;;;;;;12.97;62.53;68208.81;6066287;23;20461;-81
2022/05/04 09:51:07;;;;;;;11.88;5.50;;;;;;;12.79;62.76;68194.81;6068744;23;20721;-80
2022/05/04 09:53:33;;;;;;;12.98;6.53;;;;;;;;;;6069888;23;20023;-79
2022/05/04 09:56:01;;;;;;;12.45;5.93;;;;;;;12.94;62.21;68211.31;6070417;23;20069;-83
2022/05/04 09:58:27;;;;;;;14.45;6.45;;;;;;;12.87;63.10;68203.38;6062258;23;20023;-81
2022/05/04 10:00:53;;;;;;;11.90;6.60;;;;;;;13.29;63.85;68245.22;6062456;23;20023;-79
2022/05/04 10:03:19;;;;;;;14.02;6.25;;;;;;;;;;6063693;23;20019;-82
2022/05/04 10:05:48;;;;;;;13.50;6.43;;;;;;;;;;6064643;23;20054;-81
2022/05/04 10:08:13;;;;;;;15.77;7.65;;;;;;;13.37;60.05;68258.53;6064031;23;20019;-83
2022/05/04 10:10:39;;;;;;;17.02;7.50;;;;;;;;;;6062515;23;20074;-82
2022/05/04 10:13:06;;;;;;;12.48;6.28;;;;;;;13.76;60.20;68297.56;6063547;23;20023;-82
2022/05/04 10:15:34;;;;;;;13.35;6.50;;;;;;;13.48;59.41;68271.03;6059858;23;20082;-82
2022/05/04 10:18:07;;;;;;;12.35;7.03;;;;;;;13.31;60.34;68252.28;6061887;23;20031;-82
2022/05/04 10:20:39;;;;;;;11.93;6.63;;;;;;;;;;6061749;23;20097;-81
2022/05/04 10:23:19;;;;;;;11.52;6.47;;;;;;;;;;6061756;23;20022;-81
2022/05/04 10:25:45;;;;;;;11.93;6.32;;;;;;;;;;6036139;23;20018;-81
2022/05/04 10:28:13;;;;;;;10.90;6.07;;;;;;;13.90;59.22;68312.34;6062683;23;20026;-80
2022/05/04 10:30:45;;;;;;;9.93;5.18;;;;;;;;;;6062324;23;20035;-81
2022/05/04 10:33:10;;;;;;;12.80;6.53;;;;;;;13.90;58.71;68312.91;6061123;23;20038;-81
2022/05/04 10:35:40;;;;;;;11.55;6.72;;;;;;;14.08;57.08;68337.59;6061755;23;20392;-79
2022/05/04 10:38:05;;;;;;;12.10;6.78;;;;;;;;;;6061229;23;20082;-81
2022/05/04 10:40:36;;;;;;;11.77;6.47;;;;;;;14.08;55.85;68332.81;6062235;23;20031;-80
2022/05/04 10:43:03;;;;;;;11.43;6.50;;;;;;;;;;6058666;23;20109;-83
2022/05/04 10:45:31;;;;;;;11.10;6.90;;;;;;;14.28;56.10;68354.44;6065315;23;20026;-81
2022/05/04 10:48:22;;;;;;;12.93;5.88;;;;;;;;;;6066247;23;20857;-82
2022/05/04 10:50:53;;;;;;;12.40;7.00;;;;;;;14.17;54.83;68351.09;6069270;23;20025;-82
2022/05/04 10:53:36;;;;;;;11.65;7.18;;;;;;;14.02;56.80;68330.78;6068205;23;20019;-81
2022/05/04 10:56:01;;;;;;;12.40;7.25;;;;;;;;;;6068015;23;20019;-81
2022/05/04 10:58:45;;;;;;;13.77;6.73;;;;;;;;;;6065927;23;20083;-80
2022/05/04 11:01:12;;;;;;;15.50;6.97;;;;;;;;;;6066013;23;20563;-81
2022/05/04 11:03:55;;;;;;;11.73;6.40;;;;;;;14.78;54.04;68415.59;6065431;23;20042;-80
2022/05/04 11:06:23;;;;;;;10.60;6.70;;;;;;;;;;6064289;23;20098;-81
2022/05/04 11:08:49;;;;;;;13.32;7.25;;;;;;;14.49;53.82;68378.34;6064796;23;20023;-82
2022/05/04 11:11:14;;;;;;;11.00;6.53;;;;;;;14.64;54.32;68392.78;6065278;23;20480;-81
2022/05/04 11:13:43;;;;;;;10.52;6.38;;;;;;;14.83;54.67;68415.94;6069466;23;20018;-80
2022/05/04 11:16:08;;;;;;;13.98;6.60;;;;;;;;;;6072222;23;20015;-81
2022/05/04 11:18:33;;;;;;;12.25;7.80;;;;;;;;;;6067071;23;20074;-80
2022/05/04 11:21:01;;;;;;;13.70;6.82;;;;;;;14.47;54.36;68376.06;6068860;23;20023;-83
2022/05/04 11:23:26;;;;;;;14.93;7.72;;;;;;;14.72;53.94;68409.34;6067742;23;20030;-81
2022/05/04 11:25:52;;;;;;;13.05;7.32;;;;;;;;;;6069718;23;20049;-81
2022/05/04 11:28:24;;;;;;;12.00;6.88;;;;;;;14.77;53.53;68409.69;6065859;23;20022;-81
2022/05/04 11:30:51;;;;;;;11.82;6.60;;;;;;;;;;6065234;23;20023;-82
2022/05/04 11:33:17;;;;;;;12.75;7.70;;;;;;;;;;6064237;23;20023;-80
2022/05/04 11:35:42;;;;;;;13.77;7.32;;;;;;;;;;6065598;23;20026;-81
2022/05/04 11:38:07;;;;;;;12.68;6.00;;;;;;;15.41;50.88;68480.28;6063642;23;20029;-81
2022/05/04 11:40:33;;;;;;;12.00;6.75;;;;;;;;;;6062672;23;20029;-80
2022/05/04 11:42:58;;;;;;;13.57;6.63;;;;;;;15.39;53.17;68475.88;6062249;23;20094;-80
2022/05/04 11:45:24;;;;;;;14.23;6.38;;;;;;;;;;6059538;23;20243;-82
2022/05/04 11:47:51;;;;;;;11.00;6.43;;;;;;;15.26;52.92;68463.78;6062866;23;20089;-82
2022/05/04 11:50:16;;;;;;;12.43;6.72;;;;;;;;;;6059590;23;20023;-83
2022/05/04 11:52:44;;;;;;;12.82;6.40;;;;;;;15.35;52.52;68479.94;6058636;23;20238;-79
2022/05/04 11:55:09;;;;;;;12.77;6.53;;;;;;;15.06;52.22;68441.56;6062843;23;20019;-82
2022/05/04 11:57:44;;;;;;;12.60;6.78;;;;;;;;;;6063771;23;20029;-82
2022/05/04 12:00:17;;;;;;;11.35;6.13;;;;;;;15.84;51.41;68528.72;6064103;23;20019;-81
2022/05/04 12:02:42;;;;;;;10.93;6.95;;;;;;;15.69;50.69;68508.97;6063379;23;20041;-82
2022/05/04 12:05:08;;;;;;;11.23;6.78;;;;;;;;;;6063082;23;20480;-81
2022/05/04 12:07:33;;;;;;;11.52;6.53;;;;;;;16.34;49.11;68584.59;6063916;23;20029;-83
2022/05/04 12:10:00;;;;;;;12.13;6.93;;;;;;;16.15;48.67;68560.81;6067399;23;20330;-83
2022/05/04 12:12:25;;;;;;;12.02;6.93;;;;;;;16.10;49.25;68557.22;6065847;23;20014;-82
2022/05/04 12:14:53;;;;;;;12.05;6.72;;;;;;;;;;6066866;23;20022;-81
2022/05/04 12:17:25;;;;;;;10.75;6.40;;;;;;;16.67;51.82;68621.06;6062904;23;20487;-82
2022/05/04 12:19:51;;;;;;;11.82;6.10;;;;;;;16.83;48.94;68639.34;6067962;23;20029;-83
2022/05/04 12:22:19;;;;;;;11.00;6.68;;;;;;;16.53;48.60;68605.66;6066373;23;20487;-81
2022/05/04 12:24:45;;;;;;;12.25;6.75;;;;;;;15.95;48.49;68538.00;6066997;23;20019;-81
2022/05/04 12:27:10;;;;;;;12.07;6.97;;;;;;;;;;6067406;23;20021;-83
2022/05/04 12:35:04;;;;;;;11.45;7.13;;;;;;;15.91;50.73;68536.13;6066071;23;20073;-84
2022/05/04 12:37:32;;;;;;;12.63;7.15;;;;;;;15.94;49.98;68540.13;6064794;23;20449;-81
2022/05/04 12:40:01;;;;;;;13.25;6.55;;;;;;;16.23;50.37;68569.38;6067158;23;20489;-82